sensor_id;sensor_type;location;lat;lon;timestamp;temperature;humidity
22558;DHT22;11445;53.816;8.902;2023-06-26T00:00:01;22.40;99.90
22558;DHT22;11445;53.816;8.902;2023-06-26T00:02:29;22.40;99.90
22558;DHT22;11445;53.816;8.902;2023-06-26T00:04:58;22.40;99.90
22558;DHT22;11445;53.816;8.902;2023-06-26T00:07:29;22.30;99.90
22558;DHT22;11445;53.816;8.902;2023-06-26T00:09:56;22.30;99.90
22558;DHT22;11445;53.816;8.902;2023-06-26T00:12:24;22.30;99.90
22558;DHT22;11445;53.816;8.902;2023-06-26T00:14:51;22.20;99.90
22558;DHT22;11445;53.816;8.902;2023-06-26T00:17:18;22.20;99.90
22558;DHT22;11445;53.816;8.902;2023-06-26T00:19:45;22.20;99.90
22558;DHT22;11445;53.816;8.902;2023-06-26T00:22:12;22.20;99.90
22558;DHT22;11445;53.816;8.902;2023-06-26T00:24:40;22.10;99.90
22558;DHT22;11445;53.816;8.902;2023-06-26T00:27:06;22.10;99.90
22558;DHT22;11445;53.816;8.902;2023-06-26T00:29:33;22.00;99.90
22558;DHT22;11445;53.816;8.902;2023-06-26T00:32:00;22.00;99.90
22558;DHT22;11445;53.816;8.902;2023-06-26T00:34:28;22.00;99.90
22558;DHT22;11445;53.816;8.902;2023-06-26T00:36:54;21.90;99.90
22558;DHT22;11445;53.816;8.902;2023-06-26T00:39:21;21.90;99.90
22558;DHT22;11445;53.816;8.902;2023-06-26T00:41:52;21.90;99.90
22558;DHT22;11445;53.816;8.902;2023-06-26T00:44:20;21.80;99.90
22558;DHT22;11445;53.816;8.902;2023-06-26T00:46:47;21.80;99.90
22558;DHT22;11445;53.816;8.902;2023-06-26T00:49:14;21.80;99.90
22558;DHT22;11445;53.816;8.902;2023-06-26T00:51:41;21.80;99.90
22558;DHT22;11445;53.816;8.902;2023-06-26T00:54:08;21.70;99.90
22558;DHT22;11445;53.816;8.902;2023-06-26T00:56:35;21.70;99.90
22558;DHT22;11445;53.816;8.902;2023-06-26T00:59:04;21.70;99.90
22558;DHT22;11445;53.816;8.902;2023-06-26T01:01:31;21.70;99.90
22558;DHT22;11445;53.816;8.902;2023-06-26T01:04:00;21.70;99.90
22558;DHT22;11445;53.816;8.902;2023-06-26T01:06:29;21.70;99.90
22558;DHT22;11445;53.816;8.902;2023-06-26T01:08:58;21.70;99.90
22558;DHT22;11445;53.816;8.902;2023-06-26T01:11:24;21.70;99.90
22558;DHT22;11445;53.816;8.902;2023-06-26T01:13:51;21.60;99.90
22558;DHT22;11445;53.816;8.902;2023-06-26T01:16:21;21.60;99.90
22558;DHT22;11445;53.816;8.902;2023-06-26T01:18:48;21.60;99.90
22558;DHT22;11445;53.816;8.902;2023-06-26T01:21:16;21.60;99.90
22558;DHT22;11445;53.816;8.902;2023-06-26T01:23:58;21.60;99.90
22558;DHT22;11445;53.816;8.902;2023-06-26T01:26:34;21.50;99.90
22558;DHT22;11445;53.816;8.902;2023-06-26T01:29:03;21.50;99.90
22558;DHT22;11445;53.816;8.902;2023-06-26T01:31:31;21.50;99.90
22558;DHT22;11445;53.816;8.902;2023-06-26T01:33:58;21.50;99.90
22558;DHT22;11445;53.816;8.902;2023-06-26T01:36:25;21.50;99.90
22558;DHT22;11445;53.816;8.902;2023-06-26T01:38:53;21.50;99.90
22558;DHT22;11445;53.816;8.902;2023-06-26T01:41:20;21.50;99.90
22558;DHT22;11445;53.816;8.902;2023-06-26T01:44:03;21.50;99.90
22558;DHT22;11445;53.816;8.902;2023-06-26T01:46:39;21.40;99.90
22558;DHT22;11445;53.816;8.902;2023-06-26T01:49:12;21.40;99.90
22558;DHT22;11445;53.816;8.902;2023-06-26T01:51:45;21.50;99.90
22558;DHT22;11445;53.816;8.902;2023-06-26T01:54:16;21.40;99.90
22558;DHT22;11445;53.816;8.902;2023-06-26T01:56:45;21.40;99.90
22558;DHT22;11445;53.816;8.902;2023-06-26T01:59:18;21.40;99.90
22558;DHT22;11445;53.816;8.902;2023-06-26T02:01:46;21.40;99.90
22558;DHT22;11445;53.816;8.902;2023-06-26T02:04:13;21.40;99.90
22558;DHT22;11445;53.816;8.902;2023-06-26T02:06:40;21.40;99.90
22558;DHT22;11445;53.816;8.902;2023-06-26T02:09:07;21.40;99.90
22558;DHT22;11445;53.816;8.902;2023-06-26T02:11:34;21.40;99.90
22558;DHT22;11445;53.816;8.902;2023-06-26T02:14:00;21.50;99.90
22558;DHT22;11445;53.816;8.902;2023-06-26T02:16:29;21.50;99.90
22558;DHT22;11445;53.816;8.902;2023-06-26T02:18:56;21.50;99.90
22558;DHT22;11445;53.816;8.902;2023-06-26T02:21:23;21.50;99.90
22558;DHT22;11445;53.816;8.902;2023-06-26T02:23:50;21.50;99.90
22558;DHT22;11445;53.816;8.902;2023-06-26T02:26:17;21.50;99.90
22558;DHT22;11445;53.816;8.902;2023-06-26T02:28:44;21.50;99.90
22558;DHT22;11445;53.816;8.902;2023-06-26T02:31:11;21.50;99.90
22558;DHT22;11445;53.816;8.902;2023-06-26T02:33:39;21.50;99.90
22558;DHT22;11445;53.816;8.902;2023-06-26T02:36:06;21.50;99.90
22558;DHT22;11445;53.816;8.902;2023-06-26T02:38:32;21.50;99.90
22558;DHT22;11445;53.816;8.902;2023-06-26T02:40:59;21.50;99.90
22558;DHT22;11445;53.816;8.902;2023-06-26T02:43:26;21.50;99.90
22558;DHT22;11445;53.816;8.902;2023-06-26T02:45:53;21.50;99.90
22558;DHT22;11445;53.816;8.902;2023-06-26T02:48:19;21.50;99.90
22558;DHT22;11445;53.816;8.902;2023-06-26T02:50:48;21.50;99.90
22558;DHT22;11445;53.816;8.902;2023-06-26T02:53:14;21.50;99.90
22558;DHT22;11445;53.816;8.902;2023-06-26T02:55:41;21.50;99.90
22558;DHT22;11445;53.816;8.902;2023-06-26T02:58:08;21.50;99.90
22558;DHT22;11445;53.816;8.902;2023-06-26T03:00:35;21.50;99.90
22558;DHT22;11445;53.816;8.902;2023-06-26T03:03:06;21.50;99.90
22558;DHT22;11445;53.816;8.902;2023-06-26T03:05:33;21.50;99.90
22558;DHT22;11445;53.816;8.902;2023-06-26T03:08:02;21.50;99.90
22558;DHT22;11445;53.816;8.902;2023-06-26T03:10:29;21.50;99.90
22558;DHT22;11445;53.816;8.902;2023-06-26T03:12:56;21.50;99.90
22558;DHT22;11445;53.816;8.902;2023-06-26T03:15:22;21.40;99.90
22558;DHT22;11445;53.816;8.902;2023-06-26T03:17:49;21.40;99.90
22558;DHT22;11445;53.816;8.902;2023-06-26T03:20:16;21.40;99.90
22558;DHT22;11445;53.816;8.902;2023-06-26T03:22:43;21.40;99.90
22558;DHT22;11445;53.816;8.902;2023-06-26T03:25:11;21.40;99.90
22558;DHT22;11445;53.816;8.902;2023-06-26T03:27:38;21.50;99.90
22558;DHT22;11445;53.816;8.902;2023-06-26T03:30:05;21.50;99.90
22558;DHT22;11445;53.816;8.902;2023-06-26T03:32:32;21.50;99.90
22558;DHT22;11445;53.816;8.902;2023-06-26T03:34:59;21.50;99.90
22558;DHT22;11445;53.816;8.902;2023-06-26T03:37:27;21.50;99.90
22558;DHT22;11445;53.816;8.902;2023-06-26T03:39:54;21.50;99.90
22558;DHT22;11445;53.816;8.902;2023-06-26T03:42:22;21.50;99.90
22558;DHT22;11445;53.816;8.902;2023-06-26T03:44:49;21.50;99.90
22558;DHT22;11445;53.816;8.902;2023-06-26T03:47:16;21.50;99.90
22558;DHT22;11445;53.816;8.902;2023-06-26T03:49:42;21.60;99.90
22558;DHT22;11445;53.816;8.902;2023-06-26T03:52:09;21.70;99.90
22558;DHT22;11445;53.816;8.902;2023-06-26T03:54:36;21.80;99.90
22558;DHT22;11445;53.816;8.902;2023-06-26T03:57:03;21.80;99.90
22558;DHT22;11445;53.816;8.902;2023-06-26T03:59:31;21.80;99.90
22558;DHT22;11445;53.816;8.902;2023-06-26T04:01:58;21.70;99.90
22558;DHT22;11445;53.816;8.902;2023-06-26T04:04:25;21.70;99.90
22558;DHT22;11445;53.816;8.902;2023-06-26T04:06:52;21.70;99.90
22558;DHT22;11445;53.816;8.902;2023-06-26T04:09:18;21.70;99.90
22558;DHT22;11445;53.816;8.902;2023-06-26T04:11:45;21.70;99.90
22558;DHT22;11445;53.816;8.902;2023-06-26T04:14:12;21.70;99.90
22558;DHT22;11445;53.816;8.902;2023-06-26T04:16:40;21.70;99.90
22558;DHT22;11445;53.816;8.902;2023-06-26T04:19:07;21.70;99.90
22558;DHT22;11445;53.816;8.902;2023-06-26T04:21:35;21.80;99.90
22558;DHT22;11445;53.816;8.902;2023-06-26T04:24:02;21.80;99.90
22558;DHT22;11445;53.816;8.902;2023-06-26T04:26:29;21.80;99.90
22558;DHT22;11445;53.816;8.902;2023-06-26T04:28:56;21.90;99.90
22558;DHT22;11445;53.816;8.902;2023-06-26T04:31:23;21.90;99.90
22558;DHT22;11445;53.816;8.902;2023-06-26T04:33:51;21.90;99.90
22558;DHT22;11445;53.816;8.902;2023-06-26T04:36:21;21.90;99.90
22558;DHT22;11445;53.816;8.902;2023-06-26T04:38:47;22.00;99.90
22558;DHT22;11445;53.816;8.902;2023-06-26T04:41:14;22.00;99.90
22558;DHT22;11445;53.816;8.902;2023-06-26T04:43:41;22.00;99.90
22558;DHT22;11445;53.816;8.902;2023-06-26T04:46:08;22.10;99.90
22558;DHT22;11445;53.816;8.902;2023-06-26T04:48:35;22.10;99.90
22558;DHT22;11445;53.816;8.902;2023-06-26T04:51:03;22.10;99.90
22558;DHT22;11445;53.816;8.902;2023-06-26T04:53:29;22.20;99.90
22558;DHT22;11445;53.816;8.902;2023-06-26T04:55:56;22.20;99.90
22558;DHT22;11445;53.816;8.902;2023-06-26T04:58:23;22.20;99.90
22558;DHT22;11445;53.816;8.902;2023-06-26T05:00:50;22.30;99.90
22558;DHT22;11445;53.816;8.902;2023-06-26T05:03:17;22.30;99.90
22558;DHT22;11445;53.816;8.902;2023-06-26T05:05:44;22.40;99.90
22558;DHT22;11445;53.816;8.902;2023-06-26T05:08:16;22.40;99.90
22558;DHT22;11445;53.816;8.902;2023-06-26T05:10:44;22.40;99.90
22558;DHT22;11445;53.816;8.902;2023-06-26T05:13:11;22.50;99.90
22558;DHT22;11445;53.816;8.902;2023-06-26T05:15:40;22.60;99.90
22558;DHT22;11445;53.816;8.902;2023-06-26T05:18:07;22.60;99.90
22558;DHT22;11445;53.816;8.902;2023-06-26T05:20:34;22.70;99.90
22558;DHT22;11445;53.816;8.902;2023-06-26T05:23:02;22.70;99.90
22558;DHT22;11445;53.816;8.902;2023-06-26T05:25:31;22.80;99.90
22558;DHT22;11445;53.816;8.902;2023-06-26T05:28:00;22.80;99.90
22558;DHT22;11445;53.816;8.902;2023-06-26T05:30:27;22.90;99.90
22558;DHT22;11445;53.816;8.902;2023-06-26T05:32:57;22.90;99.90
22558;DHT22;11445;53.816;8.902;2023-06-26T05:35:28;23.00;99.90
22558;DHT22;11445;53.816;8.902;2023-06-26T05:37:56;23.00;99.90
22558;DHT22;11445;53.816;8.902;2023-06-26T05:40:23;23.10;99.90
22558;DHT22;11445;53.816;8.902;2023-06-26T05:42:52;23.10;99.90
22558;DHT22;11445;53.816;8.902;2023-06-26T05:45:19;23.10;99.90
22558;DHT22;11445;53.816;8.902;2023-06-26T05:47:46;23.20;99.90
22558;DHT22;11445;53.816;8.902;2023-06-26T05:50:14;23.30;99.90
22558;DHT22;11445;53.816;8.902;2023-06-26T05:52:41;23.40;99.90
22558;DHT22;11445;53.816;8.902;2023-06-26T05:55:10;23.40;99.90
22558;DHT22;11445;53.816;8.902;2023-06-26T05:57:38;23.50;99.90
22558;DHT22;11445;53.816;8.902;2023-06-26T06:00:09;23.60;99.90
22558;DHT22;11445;53.816;8.902;2023-06-26T06:02:36;23.60;99.90
22558;DHT22;11445;53.816;8.902;2023-06-26T06:05:04;23.70;99.90
22558;DHT22;11445;53.816;8.902;2023-06-26T06:07:31;23.80;99.90
22558;DHT22;11445;53.816;8.902;2023-06-26T06:09:59;23.90;99.90
22558;DHT22;11445;53.816;8.902;2023-06-26T06:12:25;23.90;99.90
22558;DHT22;11445;53.816;8.902;2023-06-26T06:14:53;24.00;99.90
22558;DHT22;11445;53.816;8.902;2023-06-26T06:17:21;24.00;99.90
22558;DHT22;11445;53.816;8.902;2023-06-26T06:19:48;24.00;99.90
22558;DHT22;11445;53.816;8.902;2023-06-26T06:22:15;24.10;99.90
22558;DHT22;11445;53.816;8.902;2023-06-26T06:24:43;24.00;99.90
22558;DHT22;11445;53.816;8.902;2023-06-26T06:27:10;24.00;99.90
22558;DHT22;11445;53.816;8.902;2023-06-26T06:29:37;24.10;99.90
22558;DHT22;11445;53.816;8.902;2023-06-26T06:32:04;24.00;99.90
22558;DHT22;11445;53.816;8.902;2023-06-26T06:34:32;24.10;99.90
22558;DHT22;11445;53.816;8.902;2023-06-26T06:36:59;24.10;99.90
22558;DHT22;11445;53.816;8.902;2023-06-26T06:39:26;24.10;99.90
22558;DHT22;11445;53.816;8.902;2023-06-26T06:41:53;24.20;99.90
22558;DHT22;11445;53.816;8.902;2023-06-26T06:44:20;24.20;99.90
22558;DHT22;11445;53.816;8.902;2023-06-26T06:46:47;24.30;99.90
22558;DHT22;11445;53.816;8.902;2023-06-26T06:49:14;24.40;99.90
22558;DHT22;11445;53.816;8.902;2023-06-26T06:51:42;24.40;99.90
22558;DHT22;11445;53.816;8.902;2023-06-26T06:54:09;24.50;99.90
22558;DHT22;11445;53.816;8.902;2023-06-26T06:56:36;24.60;99.90
22558;DHT22;11445;53.816;8.902;2023-06-26T06:59:02;24.70;99.90
22558;DHT22;11445;53.816;8.902;2023-06-26T07:01:29;24.90;99.90
22558;DHT22;11445;53.816;8.902;2023-06-26T07:03:56;24.90;99.90
22558;DHT22;11445;53.816;8.902;2023-06-26T07:06:23;25.00;99.90
22558;DHT22;11445;53.816;8.902;2023-06-26T07:08:51;24.90;99.90
22558;DHT22;11445;53.816;8.902;2023-06-26T07:11:18;24.90;99.90
22558;DHT22;11445;53.816;8.902;2023-06-26T07:13:45;25.00;99.90
22558;DHT22;11445;53.816;8.902;2023-06-26T07:16:12;25.00;99.90
22558;DHT22;11445;53.816;8.902;2023-06-26T07:18:40;25.10;99.90
22558;DHT22;11445;53.816;8.902;2023-06-26T07:21:08;25.20;99.90
22558;DHT22;11445;53.816;8.902;2023-06-26T07:23:35;25.20;99.90
22558;DHT22;11445;53.816;8.902;2023-06-26T07:26:03;25.40;99.90
22558;DHT22;11445;53.816;8.902;2023-06-26T07:28:30;25.50;99.90
22558;DHT22;11445;53.816;8.902;2023-06-26T07:30:57;25.60;99.90
22558;DHT22;11445;53.816;8.902;2023-06-26T07:33:24;25.60;99.90
22558;DHT22;11445;53.816;8.902;2023-06-26T07:35:51;25.60;99.90
22558;DHT22;11445;53.816;8.902;2023-06-26T07:38:17;25.50;99.90
22558;DHT22;11445;53.816;8.902;2023-06-26T07:40:44;25.50;99.90
22558;DHT22;11445;53.816;8.902;2023-06-26T07:43:12;25.40;99.90
22558;DHT22;11445;53.816;8.902;2023-06-26T07:45:39;25.30;99.90
22558;DHT22;11445;53.816;8.902;2023-06-26T07:48:06;25.30;99.90
22558;DHT22;11445;53.816;8.902;2023-06-26T07:50:34;25.20;99.90
22558;DHT22;11445;53.816;8.902;2023-06-26T07:53:01;25.30;99.90
22558;DHT22;11445;53.816;8.902;2023-06-26T07:55:28;25.30;99.90
22558;DHT22;11445;53.816;8.902;2023-06-26T07:57:54;25.30;99.90
22558;DHT22;11445;53.816;8.902;2023-06-26T08:00:23;25.20;99.90
22558;DHT22;11445;53.816;8.902;2023-06-26T08:02:50;25.10;99.90
22558;DHT22;11445;53.816;8.902;2023-06-26T08:05:17;25.00;99.90
22558;DHT22;11445;53.816;8.902;2023-06-26T08:07:44;24.80;99.90
22558;DHT22;11445;53.816;8.902;2023-06-26T08:10:10;24.50;99.90
22558;DHT22;11445;53.816;8.902;2023-06-26T08:12:37;24.20;99.90
22558;DHT22;11445;53.816;8.902;2023-06-26T08:15:06;23.90;99.90
22558;DHT22;11445;53.816;8.902;2023-06-26T08:17:35;23.80;99.90
22558;DHT22;11445;53.816;8.902;2023-06-26T08:20:02;23.60;99.90
22558;DHT22;11445;53.816;8.902;2023-06-26T08:22:30;23.60;99.90
22558;DHT22;11445;53.816;8.902;2023-06-26T08:24:57;23.60;99.90
22558;DHT22;11445;53.816;8.902;2023-06-26T08:27:23;23.60;99.90
22558;DHT22;11445;53.816;8.902;2023-06-26T08:29:50;23.50;99.90
22558;DHT22;11445;53.816;8.902;2023-06-26T08:32:17;23.50;99.90
22558;DHT22;11445;53.816;8.902;2023-06-26T08:34:45;23.50;99.90
22558;DHT22;11445;53.816;8.902;2023-06-26T08:37:12;23.40;99.90
22558;DHT22;11445;53.816;8.902;2023-06-26T08:39:39;23.30;99.90
22558;DHT22;11445;53.816;8.902;2023-06-26T08:42:06;23.20;99.90
22558;DHT22;11445;53.816;8.902;2023-06-26T08:44:32;23.00;99.90
22558;DHT22;11445;53.816;8.902;2023-06-26T08:47:00;23.00;99.90
22558;DHT22;11445;53.816;8.902;2023-06-26T08:49:32;22.90;99.90
22558;DHT22;11445;53.816;8.902;2023-06-26T08:52:06;22.70;99.90
22558;DHT22;11445;53.816;8.902;2023-06-26T08:54:38;22.40;99.90
22558;DHT22;11445;53.816;8.902;2023-06-26T08:57:07;22.10;99.90
22558;DHT22;11445;53.816;8.902;2023-06-26T08:59:34;21.80;99.90
22558;DHT22;11445;53.816;8.902;2023-06-26T09:02:01;21.40;99.90
22558;DHT22;11445;53.816;8.902;2023-06-26T09:04:28;21.30;99.90
22558;DHT22;11445;53.816;8.902;2023-06-26T09:06:55;21.10;99.90
22558;DHT22;11445;53.816;8.902;2023-06-26T09:09:23;21.00;99.90
22558;DHT22;11445;53.816;8.902;2023-06-26T09:11:50;20.90;99.90
22558;DHT22;11445;53.816;8.902;2023-06-26T09:14:17;20.90;99.90
22558;DHT22;11445;53.816;8.902;2023-06-26T09:16:45;20.80;99.90
22558;DHT22;11445;53.816;8.902;2023-06-26T09:19:12;20.80;99.90
22558;DHT22;11445;53.816;8.902;2023-06-26T09:21:40;20.80;99.90
22558;DHT22;11445;53.816;8.902;2023-06-26T09:24:08;20.80;99.90
22558;DHT22;11445;53.816;8.902;2023-06-26T09:26:37;20.80;99.90
22558;DHT22;11445;53.816;8.902;2023-06-26T09:29:05;20.80;99.90
22558;DHT22;11445;53.816;8.902;2023-06-26T09:31:33;20.80;99.90
22558;DHT22;11445;53.816;8.902;2023-06-26T09:34:02;20.90;99.90
22558;DHT22;11445;53.816;8.902;2023-06-26T09:36:30;21.00;99.90
22558;DHT22;11445;53.816;8.902;2023-06-26T09:39:00;21.00;99.90
22558;DHT22;11445;53.816;8.902;2023-06-26T09:41:27;21.00;99.90
22558;DHT22;11445;53.816;8.902;2023-06-26T09:44:01;21.10;99.90
22558;DHT22;11445;53.816;8.902;2023-06-26T09:46:30;21.20;99.90
22558;DHT22;11445;53.816;8.902;2023-06-26T09:49:01;21.30;99.90
22558;DHT22;11445;53.816;8.902;2023-06-26T09:51:30;21.40;99.90
22558;DHT22;11445;53.816;8.902;2023-06-26T09:53:57;21.60;99.90
22558;DHT22;11445;53.816;8.902;2023-06-26T09:56:24;21.70;99.90
22558;DHT22;11445;53.816;8.902;2023-06-26T09:58:51;21.70;99.90
22558;DHT22;11445;53.816;8.902;2023-06-26T10:01:21;21.70;99.90
22558;DHT22;11445;53.816;8.902;2023-06-26T10:03:48;21.80;99.90
22558;DHT22;11445;53.816;8.902;2023-06-26T10:06:18;21.80;99.90
22558;DHT22;11445;53.816;8.902;2023-06-26T10:08:46;21.70;99.90
22558;DHT22;11445;53.816;8.902;2023-06-26T10:11:16;21.50;99.90
22558;DHT22;11445;53.816;8.902;2023-06-26T10:13:48;21.50;99.90
22558;DHT22;11445;53.816;8.902;2023-06-26T10:16:19;21.50;99.90
22558;DHT22;11445;53.816;8.902;2023-06-26T10:18:50;21.50;99.90
22558;DHT22;11445;53.816;8.902;2023-06-26T10:21:20;21.50;99.90
22558;DHT22;11445;53.816;8.902;2023-06-26T10:23:50;21.50;99.90
22558;DHT22;11445;53.816;8.902;2023-06-26T10:26:19;21.60;99.90
22558;DHT22;11445;53.816;8.902;2023-06-26T10:28:47;21.50;99.90
22558;DHT22;11445;53.816;8.902;2023-06-26T10:31:19;21.50;99.90
22558;DHT22;11445;53.816;8.902;2023-06-26T10:33:48;21.50;99.90
22558;DHT22;11445;53.816;8.902;2023-06-26T10:36:16;21.40;99.90
22558;DHT22;11445;53.816;8.902;2023-06-26T10:38:51;21.40;99.90
22558;DHT22;11445;53.816;8.902;2023-06-26T10:41:22;21.40;99.90
22558;DHT22;11445;53.816;8.902;2023-06-26T10:43:50;21.50;99.90
22558;DHT22;11445;53.816;8.902;2023-06-26T10:46:18;21.50;99.90
22558;DHT22;11445;53.816;8.902;2023-06-26T10:49:00;21.60;99.90
22558;DHT22;11445;53.816;8.902;2023-06-26T10:51:27;21.70;99.90
22558;DHT22;11445;53.816;8.902;2023-06-26T10:53:55;21.70;99.90
22558;DHT22;11445;53.816;8.902;2023-06-26T10:56:40;21.60;99.90
22558;DHT22;11445;53.816;8.902;2023-06-26T10:59:15;21.50;99.90
22558;DHT22;11445;53.816;8.902;2023-06-26T11:01:43;21.40;99.90
22558;DHT22;11445;53.816;8.902;2023-06-26T11:04:13;21.50;99.90
22558;DHT22;11445;53.816;8.902;2023-06-26T11:06:45;21.60;99.90
22558;DHT22;11445;53.816;8.902;2023-06-26T11:09:15;21.80;99.90
22558;DHT22;11445;53.816;8.902;2023-06-26T11:11:56;21.90;99.90
22558;DHT22;11445;53.816;8.902;2023-06-26T11:14:30;21.90;99.90
22558;DHT22;11445;53.816;8.902;2023-06-26T11:16:57;21.90;99.90
22558;DHT22;11445;53.816;8.902;2023-06-26T11:19:27;21.90;99.90
22558;DHT22;11445;53.816;8.902;2023-06-26T11:22:04;21.90;99.90
22558;DHT22;11445;53.816;8.902;2023-06-26T11:24:31;22.00;99.90
22558;DHT22;11445;53.816;8.902;2023-06-26T11:27:02;22.00;99.90
22558;DHT22;11445;53.816;8.902;2023-06-26T11:29:30;22.10;99.90
22558;DHT22;11445;53.816;8.902;2023-06-26T11:32:03;22.10;99.90
22558;DHT22;11445;53.816;8.902;2023-06-26T11:34:32;22.10;99.90
22558;DHT22;11445;53.816;8.902;2023-06-26T11:37:00;22.00;99.90
22558;DHT22;11445;53.816;8.902;2023-06-26T11:39:29;21.90;99.90
22558;DHT22;11445;53.816;8.902;2023-06-26T11:41:56;21.90;99.90
22558;DHT22;11445;53.816;8.902;2023-06-26T11:44:23;22.00;99.90
22558;DHT22;11445;53.816;8.902;2023-06-26T11:46:52;22.00;99.90
22558;DHT22;11445;53.816;8.902;2023-06-26T11:49:22;21.90;99.90
22558;DHT22;11445;53.816;8.902;2023-06-26T11:51:53;21.80;99.90
22558;DHT22;11445;53.816;8.902;2023-06-26T11:54:27;21.90;99.90
22558;DHT22;11445;53.816;8.902;2023-06-26T11:56:54;21.90;99.90
22558;DHT22;11445;53.816;8.902;2023-06-26T11:59:23;22.00;99.90
22558;DHT22;11445;53.816;8.902;2023-06-26T12:01:50;22.20;99.90
22558;DHT22;11445;53.816;8.902;2023-06-26T12:04:18;22.30;99.90
22558;DHT22;11445;53.816;8.902;2023-06-26T12:06:47;22.30;99.90
22558;DHT22;11445;53.816;8.902;2023-06-26T12:09:18;22.40;99.90
22558;DHT22;11445;53.816;8.902;2023-06-26T12:11:47;22.60;99.90
22558;DHT22;11445;53.816;8.902;2023-06-26T12:14:15;22.50;99.90
22558;DHT22;11445;53.816;8.902;2023-06-26T12:16:44;22.30;99.90
22558;DHT22;11445;53.816;8.902;2023-06-26T12:19:11;22.20;99.90
22558;DHT22;11445;53.816;8.902;2023-06-26T12:21:46;22.20;99.90
22558;DHT22;11445;53.816;8.902;2023-06-26T12:24:16;22.00;99.90
22558;DHT22;11445;53.816;8.902;2023-06-26T12:26:44;21.90;99.90
22558;DHT22;11445;53.816;8.902;2023-06-26T12:29:12;21.80;99.90
22558;DHT22;11445;53.816;8.902;2023-06-26T12:31:40;21.70;99.90
22558;DHT22;11445;53.816;8.902;2023-06-26T12:34:12;21.80;99.90
22558;DHT22;11445;53.816;8.902;2023-06-26T12:36:43;21.90;99.90
22558;DHT22;11445;53.816;8.902;2023-06-26T12:39:11;22.00;99.90
22558;DHT22;11445;53.816;8.902;2023-06-26T12:41:47;22.00;99.90
22558;DHT22;11445;53.816;8.902;2023-06-26T12:44:18;22.10;99.90
22558;DHT22;11445;53.816;8.902;2023-06-26T12:46:46;22.10;99.90
22558;DHT22;11445;53.816;8.902;2023-06-26T12:49:14;22.10;99.90
22558;DHT22;11445;53.816;8.902;2023-06-26T12:51:40;22.20;99.90
22558;DHT22;11445;53.816;8.902;2023-06-26T12:54:08;22.30;99.90
22558;DHT22;11445;53.816;8.902;2023-06-26T12:56:35;22.30;99.90
22558;DHT22;11445;53.816;8.902;2023-06-26T12:59:03;22.30;99.90
22558;DHT22;11445;53.816;8.902;2023-06-26T13:01:30;22.30;99.90
22558;DHT22;11445;53.816;8.902;2023-06-26T13:03:58;22.30;99.90
22558;DHT22;11445;53.816;8.902;2023-06-26T13:06:25;22.30;99.90
22558;DHT22;11445;53.816;8.902;2023-06-26T13:08:51;22.30;99.90
22558;DHT22;11445;53.816;8.902;2023-06-26T13:11:19;22.40;99.90
22558;DHT22;11445;53.816;8.902;2023-06-26T13:13:47;22.40;99.90
22558;DHT22;11445;53.816;8.902;2023-06-26T13:16:15;22.40;99.90
22558;DHT22;11445;53.816;8.902;2023-06-26T13:18:44;22.40;99.90
22558;DHT22;11445;53.816;8.902;2023-06-26T13:21:11;22.40;99.90
22558;DHT22;11445;53.816;8.902;2023-06-26T13:23:38;22.50;99.90
22558;DHT22;11445;53.816;8.902;2023-06-26T13:26:05;22.40;99.90
22558;DHT22;11445;53.816;8.902;2023-06-26T13:28:32;22.30;99.90
22558;DHT22;11445;53.816;8.902;2023-06-26T13:30:58;22.30;99.90
22558;DHT22;11445;53.816;8.902;2023-06-26T13:33:27;22.20;99.90
22558;DHT22;11445;53.816;8.902;2023-06-26T13:35:53;22.10;99.90
22558;DHT22;11445;53.816;8.902;2023-06-26T13:38:21;22.00;99.90
22558;DHT22;11445;53.816;8.902;2023-06-26T13:40:50;22.10;99.90
22558;DHT22;11445;53.816;8.902;2023-06-26T13:43:17;22.10;99.90
22558;DHT22;11445;53.816;8.902;2023-06-26T13:45:44;22.00;99.90
22558;DHT22;11445;53.816;8.902;2023-06-26T13:48:11;22.00;99.90
22558;DHT22;11445;53.816;8.902;2023-06-26T13:50:39;22.00;99.90
22558;DHT22;11445;53.816;8.902;2023-06-26T13:53:06;22.00;99.90
22558;DHT22;11445;53.816;8.902;2023-06-26T13:55:33;22.00;99.90
22558;DHT22;11445;53.816;8.902;2023-06-26T13:58:01;21.90;99.90
22558;DHT22;11445;53.816;8.902;2023-06-26T14:00:29;21.80;99.90
22558;DHT22;11445;53.816;8.902;2023-06-26T14:02:56;21.90;99.90
22558;DHT22;11445;53.816;8.902;2023-06-26T14:05:23;21.80;99.90
22558;DHT22;11445;53.816;8.902;2023-06-26T14:07:51;21.80;99.90
22558;DHT22;11445;53.816;8.902;2023-06-26T14:10:19;21.80;99.90
22558;DHT22;11445;53.816;8.902;2023-06-26T14:12:46;21.80;99.90
22558;DHT22;11445;53.816;8.902;2023-06-26T14:15:13;21.80;99.90
22558;DHT22;11445;53.816;8.902;2023-06-26T14:17:40;21.80;99.90
22558;DHT22;11445;53.816;8.902;2023-06-26T14:20:08;21.70;99.90
22558;DHT22;11445;53.816;8.902;2023-06-26T14:22:38;21.70;99.90
22558;DHT22;11445;53.816;8.902;2023-06-26T14:25:07;21.70;99.90
22558;DHT22;11445;53.816;8.902;2023-06-26T14:27:34;21.70;99.90
22558;DHT22;11445;53.816;8.902;2023-06-26T14:30:02;21.50;99.90
22558;DHT22;11445;53.816;8.902;2023-06-26T14:32:29;21.50;99.90
22558;DHT22;11445;53.816;8.902;2023-06-26T14:34:56;21.50;99.90
22558;DHT22;11445;53.816;8.902;2023-06-26T14:37:23;21.40;99.90
22558;DHT22;11445;53.816;8.902;2023-06-26T14:39:50;21.50;99.90
22558;DHT22;11445;53.816;8.902;2023-06-26T14:42:18;21.60;99.90
22558;DHT22;11445;53.816;8.902;2023-06-26T14:44:45;21.50;99.90
22558;DHT22;11445;53.816;8.902;2023-06-26T14:47:15;21.50;99.90
22558;DHT22;11445;53.816;8.902;2023-06-26T14:49:42;21.40;99.90
22558;DHT22;11445;53.816;8.902;2023-06-26T14:52:09;21.30;99.90
22558;DHT22;11445;53.816;8.902;2023-06-26T14:54:36;21.40;99.90
22558;DHT22;11445;53.816;8.902;2023-06-26T14:57:03;21.40;99.90
22558;DHT22;11445;53.816;8.902;2023-06-26T14:59:31;21.50;99.90
22558;DHT22;11445;53.816;8.902;2023-06-26T15:01:58;21.50;99.90
22558;DHT22;11445;53.816;8.902;2023-06-26T15:04:24;21.50;99.90
22558;DHT22;11445;53.816;8.902;2023-06-26T15:06:52;21.60;99.90
22558;DHT22;11445;53.816;8.902;2023-06-26T15:09:19;21.50;99.90
22558;DHT22;11445;53.816;8.902;2023-06-26T15:11:45;21.40;99.90
22558;DHT22;11445;53.816;8.902;2023-06-26T15:14:12;21.40;99.90
22558;DHT22;11445;53.816;8.902;2023-06-26T15:16:41;21.20;99.90
22558;DHT22;11445;53.816;8.902;2023-06-26T15:19:07;21.10;99.90
22558;DHT22;11445;53.816;8.902;2023-06-26T15:21:35;21.10;99.90
22558;DHT22;11445;53.816;8.902;2023-06-26T15:24:02;21.00;99.90
22558;DHT22;11445;53.816;8.902;2023-06-26T15:26:28;21.00;99.90
22558;DHT22;11445;53.816;8.902;2023-06-26T15:28:55;20.90;99.90
22558;DHT22;11445;53.816;8.902;2023-06-26T15:31:22;20.80;99.90
22558;DHT22;11445;53.816;8.902;2023-06-26T15:33:50;20.80;99.90